Aviation Digital Data Service (ADDS)

Output produced by METARs form (2333 UTC 15 February 2019)
found at http://www.aviationweather.gov/metar/data/
 
METAR text: SGAS 152300Z 19008KT 9999 FEW033 26/18 Q1009
Conditions at: SGAS (ASUNCION/SILVIO , PY) observed 2300 UTC 15 February 2019
Temperature: 26.0°C (79°F)
Dewpoint: 18.0°C (64°F) [RH = 61%]
Pressure (altimeter): 29.79 inches Hg (1009.0 mb)
Winds: from the S (190 degrees) at 9 MPH (8 knots; 4.1 m/s)
Visibility: 6 or more miles (10+ km)
Ceiling: at least 12,000 feet AGL
Clouds: few clouds at 3300 feet AGL
Weather: no significant weather observed at this time

METAR text: SGAS 152200Z 22014KT 9999 FEW033 SCT083 28/18 Q1009
Conditions at: SGAS (ASUNCION/SILVIO , PY) observed 2200 UTC 15 February 2019
Temperature: 28.0°C (82°F)
Dewpoint: 18.0°C (64°F) [RH = 55%]
Pressure (altimeter): 29.79 inches Hg (1009.0 mb)
Winds: from the SW (220 degrees) at 16 MPH (14 knots; 7.2 m/s)
Visibility: 6 or more miles (10+ km)
Ceiling: at least 12,000 feet AGL
Clouds: few clouds at 3300 feet AGL
scattered clouds at 8300 feet AGL
Weather: no significant weather observed at this time

METAR text: SGAS 152100Z 21011KT 170V240 9999 FEW033 BKN083 28/18 Q1009
Conditions at: SGAS (ASUNCION/SILVIO , PY) observed 2100 UTC 15 February 2019
Temperature: 28.0°C (82°F)
Dewpoint: 18.0°C (64°F) [RH = 55%]
Pressure (altimeter): 29.79 inches Hg (1009.0 mb)
Winds: from the SSW (210 degrees) at 13 MPH (11 knots; 5.7 m/s)
Visibility: 6 or more miles (10+ km)
Ceiling: 8300 feet AGL
Clouds: few clouds at 3300 feet AGL
broken clouds at 8300 feet AGL
Weather: no significant weather observed at this time

METAR text: SGAS 152000Z 20013KT 9999 BKN033 29/18 Q1009
Conditions at: SGAS (ASUNCION/SILVIO , PY) observed 2000 UTC 15 February 2019
Temperature: 29.0°C (84°F)
Dewpoint: 18.0°C (64°F) [RH = 52%]
Pressure (altimeter): 29.79 inches Hg (1009.0 mb)
Winds: from the SSW (200 degrees) at 15 MPH (13 knots; 6.7 m/s)
Visibility: 6 or more miles (10+ km)
Ceiling: 3300 feet AGL
Clouds: broken clouds at 3300 feet AGL
Weather: no significant weather observed at this time

METAR text: SGAS 151900Z 21010KT 170V260 9999 BKN033 29/19 Q1009
Conditions at: SGAS (ASUNCION/SILVIO , PY) observed 1900 UTC 15 February 2019
Temperature: 29.0°C (84°F)
Dewpoint: 19.0°C (66°F) [RH = 55%]
Pressure (altimeter): 29.79 inches Hg (1009.0 mb)
Winds: from the SSW (210 degrees) at 12 MPH (10 knots; 5.1 m/s)
Visibility: 6 or more miles (10+ km)
Ceiling: 3300 feet AGL
Clouds: broken clouds at 3300 feet AGL
Weather: no significant weather observed at this time

METAR text: SGAS 151800Z 20012KT 150V230 9999 BKN033 29/18 Q1010
Conditions at: SGAS (ASUNCION/SILVIO , PY) observed 1800 UTC 15 February 2019
Temperature: 29.0°C (84°F)
Dewpoint: 18.0°C (64°F) [RH = 52%]
Pressure (altimeter): 29.82 inches Hg (1010.0 mb)
Winds: from the SSW (200 degrees) at 14 MPH (12 knots; 6.2 m/s)
Visibility: 6 or more miles (10+ km)
Ceiling: 3300 feet AGL
Clouds: broken clouds at 3300 feet AGL
Weather: no significant weather observed at this time

METAR text: SGAS 151700Z 22014KT 180V240 9999 BKN033 29/19 Q1010
Conditions at: SGAS (ASUNCION/SILVIO , PY) observed 1700 UTC 15 February 2019
Temperature: 29.0°C (84°F)
Dewpoint: 19.0°C (66°F) [RH = 55%]
Pressure (altimeter): 29.82 inches Hg (1010.0 mb)
Winds: from the SW (220 degrees) at 16 MPH (14 knots; 7.2 m/s)
Visibility: 6 or more miles (10+ km)
Ceiling: 3300 feet AGL
Clouds: broken clouds at 3300 feet AGL
Weather: no significant weather observed at this time

METAR text: SGAS 151600Z 21013KT 170V240 9999 BKN033 30/18 Q1010
Conditions at: SGAS (ASUNCION/SILVIO , PY) observed 1600 UTC 15 February 2019
Temperature: 30.0°C (86°F)
Dewpoint: 18.0°C (64°F) [RH = 49%]
Pressure (altimeter): 29.82 inches Hg (1010.0 mb)
Winds: from the SSW (210 degrees) at 15 MPH (13 knots; 6.7 m/s)
Visibility: 6 or more miles (10+ km)
Ceiling: 3300 feet AGL
Clouds: broken clouds at 3300 feet AGL
Weather: no significant weather observed at this time

METAR text: SGAS 151500Z 24013KT 200V270 9999 SCT040 29/19 Q1011
Conditions at: SGAS (ASUNCION/SILVIO , PY) observed 1500 UTC 15 February 2019
Temperature: 29.0°C (84°F)
Dewpoint: 19.0°C (66°F) [RH = 55%]
Pressure (altimeter): 29.85 inches Hg (1011.0 mb)
Winds: from the WSW (240 degrees) at 15 MPH (13 knots; 6.7 m/s)
Visibility: 6 or more miles (10+ km)
Ceiling: at least 12,000 feet AGL
Clouds: scattered clouds at 4000 feet AGL
Weather: no significant weather observed at this time

METAR text: SGAS 151400Z 23013KT 190V250 9999 FEW040 28/19 Q1011
Conditions at: SGAS (ASUNCION/SILVIO , PY) observed 1400 UTC 15 February 2019
Temperature: 28.0°C (82°F)
Dewpoint: 19.0°C (66°F) [RH = 58%]
Pressure (altimeter): 29.85 inches Hg (1011.0 mb)
Winds: from the SW (230 degrees) at 15 MPH (13 knots; 6.7 m/s)
Visibility: 6 or more miles (10+ km)
Ceiling: at least 12,000 feet AGL
Clouds: few clouds at 4000 feet AGL
Weather: no significant weather observed at this time

METAR text: SGAS 151330Z 23012KT 200V260 9999 FEW040 27/18 Q1011
Conditions at: SGAS (ASUNCION/SILVIO , PY) observed 1330 UTC 15 February 2019
Temperature: 27.0°C (81°F)
Dewpoint: 18.0°C (64°F) [RH = 58%]
Pressure (altimeter): 29.85 inches Hg (1011.0 mb)
Winds: from the SW (230 degrees) at 14 MPH (12 knots; 6.2 m/s)
Visibility: 6 or more miles (10+ km)
Ceiling: at least 12,000 feet AGL
Clouds: few clouds at 4000 feet AGL
Weather: no significant weather observed at this time

METAR text: SGAS 151300Z 23010KT 190V260 CAVOK 27/18 Q1011
Conditions at: SGAS (ASUNCION/SILVIO , PY) observed 1300 UTC 15 February 2019
Temperature: 27.0°C (81°F)
Dewpoint: 18.0°C (64°F) [RH = 58%]
Pressure (altimeter): 29.85 inches Hg (1011.0 mb)
Winds: from the SW (230 degrees) at 12 MPH (10 knots; 5.1 m/s)
Visibility: 6 or more miles (10+ km)
Ceiling: ceiling and visibility are OK
Clouds: unknown
Weather: no significant weather observed at this time

METAR text: SGAS 151230Z 23011KT CAVOK 26/18 Q1011
Conditions at: SGAS (ASUNCION/SILVIO , PY) observed 1230 UTC 15 February 2019
Temperature: 26.0°C (79°F)
Dewpoint: 18.0°C (64°F) [RH = 61%]
Pressure (altimeter): 29.85 inches Hg (1011.0 mb)
Winds: from the SW (230 degrees) at 13 MPH (11 knots; 5.7 m/s)
Visibility: 6 or more miles (10+ km)
Ceiling: ceiling and visibility are OK
Clouds: unknown
Weather: no significant weather observed at this time

METAR text: SGAS 151200Z 23008KT 190V260 CAVOK 25/19 Q1011
Conditions at: SGAS (ASUNCION/SILVIO , PY) observed 1200 UTC 15 February 2019
Temperature: 25.0°C (77°F)
Dewpoint: 19.0°C (66°F) [RH = 69%]
Pressure (altimeter): 29.85 inches Hg (1011.0 mb)
Winds: from the SW (230 degrees) at 9 MPH (8 knots; 4.1 m/s)
Visibility: 6 or more miles (10+ km)
Ceiling: ceiling and visibility are OK
Clouds: unknown
Weather: no significant weather observed at this time

METAR text: SGAS 151130Z 22007KT 180V260 CAVOK 24/19 Q1011
Conditions at: SGAS (ASUNCION/SILVIO , PY) observed 1130 UTC 15 February 2019
Temperature: 24.0°C (75°F)
Dewpoint: 19.0°C (66°F) [RH = 74%]
Pressure (altimeter): 29.85 inches Hg (1011.0 mb)
Winds: from the SW (220 degrees) at 8 MPH (7 knots; 3.6 m/s)
Visibility: 6 or more miles (10+ km)
Ceiling: ceiling and visibility are OK
Clouds: unknown
Weather: no significant weather observed at this time

METAR text: SGAS 151100Z 23006KT CAVOK 23/19 Q1011
Conditions at: SGAS (ASUNCION/SILVIO , PY) observed 1100 UTC 15 February 2019
Temperature: 23.0°C (73°F)
Dewpoint: 19.0°C (66°F) [RH = 78%]
Pressure (altimeter): 29.85 inches Hg (1011.0 mb)
Winds: from the SW (230 degrees) at 7 MPH (6 knots; 3.1 m/s)
Visibility: 6 or more miles (10+ km)
Ceiling: ceiling and visibility are OK
Clouds: unknown
Weather: no significant weather observed at this time

METAR text: SGAS 151000Z 27002KT CAVOK 21/19 Q1010
Conditions at: SGAS (ASUNCION/SILVIO , PY) observed 1000 UTC 15 February 2019
Temperature: 21.0°C (70°F)
Dewpoint: 19.0°C (66°F) [RH = 88%]
Pressure (altimeter): 29.82 inches Hg (1010.0 mb)
Winds: from the W (270 degrees) at 2 MPH (2 knots; 1.0 m/s)
Visibility: 6 or more miles (10+ km)
Ceiling: ceiling and visibility are OK
Clouds: unknown
Weather: no significant weather observed at this time

METAR text: SGAS 150900Z 24004KT CAVOK 22/19 Q1010
Conditions at: SGAS (ASUNCION/SILVIO , PY) observed 0900 UTC 15 February 2019
Temperature: 22.0°C (72°F)
Dewpoint: 19.0°C (66°F) [RH = 83%]
Pressure (altimeter): 29.82 inches Hg (1010.0 mb)
Winds: from the WSW (240 degrees) at 5 MPH (4 knots; 2.1 m/s)
Visibility: 6 or more miles (10+ km)
Ceiling: ceiling and visibility are OK
Clouds: unknown
Weather: no significant weather observed at this time

METAR text: SGAS 150800Z 24005KT CAVOK 22/20 Q1010
Conditions at: SGAS (ASUNCION/SILVIO , PY) observed 0800 UTC 15 February 2019
Temperature: 22.0°C (72°F)
Dewpoint: 20.0°C (68°F) [RH = 88%]
Pressure (altimeter): 29.82 inches Hg (1010.0 mb)
Winds: from the WSW (240 degrees) at 6 MPH (5 knots; 2.6 m/s)
Visibility: 6 or more miles (10+ km)
Ceiling: ceiling and visibility are OK
Clouds: unknown
Weather: no significant weather observed at this time

METAR text: SGAS 150700Z 22005KT CAVOK 22/20 Q1010
Conditions at: SGAS (ASUNCION/SILVIO , PY) observed 0700 UTC 15 February 2019
Temperature: 22.0°C (72°F)
Dewpoint: 20.0°C (68°F) [RH = 88%]
Pressure (altimeter): 29.82 inches Hg (1010.0 mb)
Winds: from the SW (220 degrees) at 6 MPH (5 knots; 2.6 m/s)
Visibility: 6 or more miles (10+ km)
Ceiling: ceiling and visibility are OK
Clouds: unknown
Weather: no significant weather observed at this time

METAR text: SGAS 150600Z 21006KT CAVOK 23/20 Q1010
Conditions at: SGAS (ASUNCION/SILVIO , PY) observed 0600 UTC 15 February 2019
Temperature: 23.0°C (73°F)
Dewpoint: 20.0°C (68°F) [RH = 83%]
Pressure (altimeter): 29.82 inches Hg (1010.0 mb)
Winds: from the SSW (210 degrees) at 7 MPH (6 knots; 3.1 m/s)
Visibility: 6 or more miles (10+ km)
Ceiling: ceiling and visibility are OK
Clouds: unknown
Weather: no significant weather observed at this time

METAR text: SGAS 150500Z 21006KT CAVOK 23/21 Q1011
Conditions at: SGAS (ASUNCION/SILVIO , PY) observed 0500 UTC 15 February 2019
Temperature: 23.0°C (73°F)
Dewpoint: 21.0°C (70°F) [RH = 89%]
Pressure (altimeter): 29.85 inches Hg (1011.0 mb)
Winds: from the SSW (210 degrees) at 7 MPH (6 knots; 3.1 m/s)
Visibility: 6 or more miles (10+ km)
Ceiling: ceiling and visibility are OK
Clouds: unknown
Weather: no significant weather observed at this time

METAR text: SGAS 150400Z 23006KT CAVOK 23/22 Q1011
Conditions at: SGAS (ASUNCION/SILVIO , PY) observed 0400 UTC 15 February 2019
Temperature: 23.0°C (73°F)
Dewpoint: 22.0°C (72°F) [RH = 94%]
Pressure (altimeter): 29.85 inches Hg (1011.0 mb)
Winds: from the SW (230 degrees) at 7 MPH (6 knots; 3.1 m/s)
Visibility: 6 or more miles (10+ km)
Ceiling: ceiling and visibility are OK
Clouds: unknown
Weather: no significant weather observed at this time

METAR text: SGAS 150300Z 00000KT CAVOK 23/23 Q1012
Conditions at: SGAS (ASUNCION/SILVIO , PY) observed 0300 UTC 15 February 2019
Temperature: 23.0°C (73°F)
Dewpoint: 23.0°C (73°F) [RH = 100%]
Pressure (altimeter): 29.88 inches Hg (1012.0 mb)
Winds: calm
Visibility: 6 or more miles (10+ km)
Ceiling: ceiling and visibility are OK
Clouds: unknown
Weather: no significant weather observed at this time

METAR text: SGAS 150200Z 00000KT CAVOK 23/23 Q1012
Conditions at: SGAS (ASUNCION/SILVIO , PY) observed 0200 UTC 15 February 2019
Temperature: 23.0°C (73°F)
Dewpoint: 23.0°C (73°F) [RH = 100%]
Pressure (altimeter): 29.88 inches Hg (1012.0 mb)
Winds: calm
Visibility: 6 or more miles (10+ km)
Ceiling: ceiling and visibility are OK
Clouds: unknown
Weather: no significant weather observed at this time

METAR text: SGAS 150100Z 00000KT CAVOK 23/23 Q1011
Conditions at: SGAS (ASUNCION/SILVIO , PY) observed 0100 UTC 15 February 2019
Temperature: 23.0°C (73°F)
Dewpoint: 23.0°C (73°F) [RH = 100%]
Pressure (altimeter): 29.85 inches Hg (1011.0 mb)
Winds: calm
Visibility: 6 or more miles (10+ km)
Ceiling: ceiling and visibility are OK
Clouds: unknown
Weather: no significant weather observed at this time

METAR text: SGAS 150000Z 18005KT CAVOK 24/23 Q1011
Conditions at: SGAS (ASUNCION/SILVIO , PY) observed 0000 UTC 15 February 2019
Temperature: 24.0°C (75°F)
Dewpoint: 23.0°C (73°F) [RH = 94%]
Pressure (altimeter): 29.85 inches Hg (1011.0 mb)
Winds: from the S (180 degrees) at 6 MPH (5 knots; 2.6 m/s)
Visibility: 6 or more miles (10+ km)
Ceiling: ceiling and visibility are OK
Clouds: unknown
Weather: no significant weather observed at this time

METAR text: SGAS 142300Z 20008KT 9999 SCT010 24/23 Q1010
Conditions at: SGAS (ASUNCION/SILVIO , PY) observed 2300 UTC 14 February 2019
Temperature: 24.0°C (75°F)
Dewpoint: 23.0°C (73°F) [RH = 94%]
Pressure (altimeter): 29.82 inches Hg (1010.0 mb)
Winds: from the SSW (200 degrees) at 9 MPH (8 knots; 4.1 m/s)
Visibility: 6 or more miles (10+ km)
Ceiling: at least 12,000 feet AGL
Clouds: scattered clouds at 1000 feet AGL
Weather: no significant weather observed at this time

METAR text: SGAS 142200Z 17005KT 9999 BKN012 25/23 Q1010
Conditions at: SGAS (ASUNCION/SILVIO , PY) observed 2200 UTC 14 February 2019
Temperature: 25.0°C (77°F)
Dewpoint: 23.0°C (73°F) [RH = 89%]
Pressure (altimeter): 29.82 inches Hg (1010.0 mb)
Winds: from the S (170 degrees) at 6 MPH (5 knots; 2.6 m/s)
Visibility: 6 or more miles (10+ km)
Ceiling: 1200 feet AGL
Clouds: broken clouds at 1200 feet AGL
Weather: no significant weather observed at this time

METAR text: SGAS 142100Z 21006KT 9999 BKN010 25/23 Q1010
Conditions at: SGAS (ASUNCION/SILVIO , PY) observed 2100 UTC 14 February 2019
Temperature: 25.0°C (77°F)
Dewpoint: 23.0°C (73°F) [RH = 89%]
Pressure (altimeter): 29.82 inches Hg (1010.0 mb)
Winds: from the SSW (210 degrees) at 7 MPH (6 knots; 3.1 m/s)
Visibility: 6 or more miles (10+ km)
Ceiling: 1000 feet AGL
Clouds: broken clouds at 1000 feet AGL
Weather: no significant weather observed at this time

METAR text: SGAS 142000Z 23007KT 9999 OVC010 24/23 Q1010
Conditions at: SGAS (ASUNCION/SILVIO , PY) observed 2000 UTC 14 February 2019
Temperature: 24.0°C (75°F)
Dewpoint: 23.0°C (73°F) [RH = 94%]
Pressure (altimeter): 29.82 inches Hg (1010.0 mb)
Winds: from the SW (230 degrees) at 8 MPH (7 knots; 3.6 m/s)
Visibility: 6 or more miles (10+ km)
Ceiling: 1000 feet AGL
Clouds: overcast cloud deck at 1000 feet AGL
Weather: no significant weather observed at this time

METAR text: SGAS 141900Z 22007KT 9999 OVC013 25/23 Q1010
Conditions at: SGAS (ASUNCION/SILVIO , PY) observed 1900 UTC 14 February 2019
Temperature: 25.0°C (77°F)
Dewpoint: 23.0°C (73°F) [RH = 89%]
Pressure (altimeter): 29.82 inches Hg (1010.0 mb)
Winds: from the SW (220 degrees) at 8 MPH (7 knots; 3.6 m/s)
Visibility: 6 or more miles (10+ km)
Ceiling: 1300 feet AGL
Clouds: overcast cloud deck at 1300 feet AGL
Weather: no significant weather observed at this time

METAR text: SGAS 141800Z VRB05KT 9999 BKN015 BKN070 24/24 Q1010
Conditions at: SGAS (ASUNCION/SILVIO , PY) observed 1800 UTC 14 February 2019
Temperature: 24.0°C (75°F)
Dewpoint: 24.0°C (75°F) [RH = 100%]
Pressure (altimeter): 29.82 inches Hg (1010.0 mb)
Winds: variable direction winds at 6 MPH (5 knots; 2.6 m/s)
Visibility: 6 or more miles (10+ km)
Ceiling: 1500 feet AGL
Clouds: broken clouds at 1500 feet AGL
broken clouds at 7000 feet AGL
Weather: no significant weather observed at this time

METAR text: SGAS 141700Z 15009KT 9999 -RA BKN010 OVC070 23/23 Q1011
Conditions at: SGAS (ASUNCION/SILVIO , PY) observed 1700 UTC 14 February 2019
Temperature: 23.0°C (73°F)
Dewpoint: 23.0°C (73°F) [RH = 100%]
Pressure (altimeter): 29.85 inches Hg (1011.0 mb)
Winds: from the SSE (150 degrees) at 10 MPH (9 knots; 4.6 m/s)
Visibility: 6 or more miles (10+ km)
Ceiling: 1000 feet AGL
Clouds: broken clouds at 1000 feet AGL
overcast cloud deck at 7000 feet AGL
Weather: -RA  (light rain)

METAR text: SGAS 141600Z 17006KT 7000 RA OVC010 22/22 Q1012
Conditions at: SGAS (ASUNCION/SILVIO , PY) observed 1600 UTC 14 February 2019
Temperature: 22.0°C (72°F)
Dewpoint: 22.0°C (72°F) [RH = 100%]
Pressure (altimeter): 29.88 inches Hg (1012.0 mb)
Winds: from the S (170 degrees) at 7 MPH (6 knots; 3.1 m/s)
Visibility: 4 miles ( 7 km)
Ceiling: 1000 feet AGL
Clouds: overcast cloud deck at 1000 feet AGL
Weather: RA  (moderate rain)

METAR text: SGAS 141500Z 20006KT 9999 -RA OVC010 21/21 Q1013
Conditions at: SGAS (ASUNCION/SILVIO , PY) observed 1500 UTC 14 February 2019
Temperature: 21.0°C (70°F)
Dewpoint: 21.0°C (70°F) [RH = 100%]
Pressure (altimeter): 29.91 inches Hg (1013.0 mb)
Winds: from the SSW (200 degrees) at 7 MPH (6 knots; 3.1 m/s)
Visibility: 6 or more miles (10+ km)
Ceiling: 1000 feet AGL
Clouds: overcast cloud deck at 1000 feet AGL
Weather: -RA  (light rain)

METAR text: SGAS 141400Z 18005KT 1500 +RA OVC008 21/21 Q1013
Conditions at: SGAS (ASUNCION/SILVIO , PY) observed 1400 UTC 14 February 2019
Temperature: 21.0°C (70°F)
Dewpoint: 21.0°C (70°F) [RH = 100%]
Pressure (altimeter): 29.91 inches Hg (1013.0 mb)
Winds: from the S (180 degrees) at 6 MPH (5 knots; 2.6 m/s)
Visibility: 0.93 miles (1.50 km)
Ceiling: 800 feet AGL
Clouds: overcast cloud deck at 800 feet AGL
Weather: +RA  (heavy rain)

METAR text: SGAS 141330Z 21006KT 3000 +RA OVC010 22/21 Q1013
Conditions at: SGAS (ASUNCION/SILVIO , PY) observed 1330 UTC 14 February 2019
Temperature: 22.0°C (72°F)
Dewpoint: 21.0°C (70°F) [RH = 94%]
Pressure (altimeter): 29.91 inches Hg (1013.0 mb)
Winds: from the SSW (210 degrees) at 7 MPH (6 knots; 3.1 m/s)
Visibility: 1.86 miles (2.99 km)
Ceiling: 1000 feet AGL
Clouds: overcast cloud deck at 1000 feet AGL
Weather: +RA  (heavy rain)

METAR text: SGAS 141300Z 22008KT 5000 RA SCT004 OVC020 22/21 Q1013
Conditions at: SGAS (ASUNCION/SILVIO , PY) observed 1300 UTC 14 February 2019
Temperature: 22.0°C (72°F)
Dewpoint: 21.0°C (70°F) [RH = 94%]
Pressure (altimeter): 29.91 inches Hg (1013.0 mb)
Winds: from the SW (220 degrees) at 9 MPH (8 knots; 4.1 m/s)
Visibility: 3 miles ( 5 km)
Ceiling: 2000 feet AGL
Clouds: scattered clouds at 400 feet AGL
overcast cloud deck at 2000 feet AGL
Weather: RA  (moderate rain)

METAR text: SGAS 141230Z 22008KT 5000 RA OVC020 22/21 Q1013
Conditions at: SGAS (ASUNCION/SILVIO , PY) observed 1230 UTC 14 February 2019
Temperature: 22.0°C (72°F)
Dewpoint: 21.0°C (70°F) [RH = 94%]
Pressure (altimeter): 29.91 inches Hg (1013.0 mb)
Winds: from the SW (220 degrees) at 9 MPH (8 knots; 4.1 m/s)
Visibility: 3 miles ( 5 km)
Ceiling: 2000 feet AGL
Clouds: overcast cloud deck at 2000 feet AGL
Weather: RA  (moderate rain)

METAR text: SGAS 141200Z 23006KT 6000 RA BKN020 OVC070 22/21 Q1013
Conditions at: SGAS (ASUNCION/SILVIO , PY) observed 1200 UTC 14 February 2019
Temperature: 22.0°C (72°F)
Dewpoint: 21.0°C (70°F) [RH = 94%]
Pressure (altimeter): 29.91 inches Hg (1013.0 mb)
Winds: from the SW (230 degrees) at 7 MPH (6 knots; 3.1 m/s)
Visibility: 4 miles ( 6 km)
Ceiling: 2000 feet AGL
Clouds: broken clouds at 2000 feet AGL
overcast cloud deck at 7000 feet AGL
Weather: RA  (moderate rain)

Forecast for: SGAS (ASUNCION/SILVIO , PY)
Text: TAF SGAS 152200Z 1600/1700 21011KT 9999 FEW033 TX29/1619Z TN19/1609Z
Forecast period: 0000 to 0800 UTC 16 February 2019
Forecast type: FROM: standard forecast or significant change
Winds: from the SSW (210 degrees) at 13 MPH (11 knots; 5.7 m/s)
Visibility: 6 or more miles 10+ km)
Ceiling: at least 12,000 feet AGL
Clouds: few clouds at 3300 feet AGL
Weather: no significant weather forecast for this period
Text: BECMG 1600/1603
Forecast period: 0800 to 1300 UTC 16 February 2019
Forecast type: BECOMING: Conditions expected to become as follows by 1100 UTC 16 February 2019
Winds: from the SSW (210 degrees) at 7 MPH (6 knots; 3.1 m/s)
Visibility: 6 or more miles 10+ km)
Ceiling: 2700 feet AGL
Clouds: broken clouds at 2700 feet AGL
Weather: no significant weather forecast for this period
Text: BECMG 1608/1611 21006KT 9999 BKN027
Forecast period: 1300 UTC 16 February 2019 to 0000 UTC 17 February 2019
Forecast type: BECOMING: Conditions expected to become as follows by 1600 UTC 16 February 2019
Winds: from the SSW (210 degrees) at 7 MPH (6 knots; 3.1 m/s)
Visibility: 6 or more miles 10+ km)
Ceiling: at least 12,000 feet AGL
Clouds: scattered clouds at 3300 feet AGL
Weather: no significant weather forecast for this period